Indian River Shores, Florida
Current Conditions -  °F | °C
As of 3:53 AM on Sunday 21 Dec 2014 (Local Time) from KVRB Reporting Station
Haze Haze  
Wind Chill: 59°   Ceiling: Unl
Heat Index: 59°   Visibility: 4mi
Dew Point: 57°   Wind: 0mph
Humidity: 93%   Direction: NA
Pressure: 30.06"   Gusts: NA
Location:  27.7066°N, 80.3826°W
Report Text: KVRB 210853Z AUTO 00000KT 4SM BR FEW100 15/14 A3006 RMK AO2 SLP179 T01500139 56006
Loading
Personal Weather Stations






























Interactive Weather Map New forecast layout! Learn more

10-Day Weather Forecast

Advertisements
Track Severe Weather on mobile